createdAt,value
2023-02-06T00:00:11.133Z,0.00
2023-02-06T00:01:11.098Z,0.00
2023-02-06T00:02:11.119Z,0.00
2023-02-06T00:03:11.054Z,0.00
2023-02-06T00:04:11.035Z,0.00
2023-02-06T00:05:11.020Z,0.00
2023-02-06T00:06:11.005Z,0.00
2023-02-06T00:07:10.981Z,0.00
2023-02-06T00:08:10.963Z,0.00
2023-02-06T00:09:10.943Z,0.00
2023-02-06T00:10:10.924Z,0.00
2023-02-06T00:11:10.895Z,0.00
2023-02-06T00:12:10.879Z,0.00
2023-02-06T00:13:10.862Z,0.00
2023-02-06T00:14:11.241Z,0.00
2023-02-06T00:15:10.819Z,0.00
2023-02-06T00:16:10.818Z,0.00
2023-02-06T00:17:10.775Z,0.00
2023-02-06T00:18:10.767Z,0.00
2023-02-06T00:19:10.746Z,0.00
2023-02-06T00:20:10.720Z,0.00
2023-02-06T00:21:10.715Z,0.00
2023-02-06T00:22:10.682Z,0.00
2023-02-06T00:23:10.662Z,0.00
2023-02-06T00:24:10.651Z,0.00
2023-02-06T00:25:10.644Z,0.00
2023-02-06T00:26:10.598Z,0.00
2023-02-06T00:27:10.575Z,0.00
2023-02-06T00:28:10.618Z,0.00
2023-02-06T00:29:10.533Z,0.00
2023-02-06T00:30:10.537Z,0.00
2023-02-06T00:31:10.626Z,0.00
2023-02-06T00:32:10.477Z,0.00
2023-02-06T00:33:10.457Z,0.00
2023-02-06T00:34:10.459Z,0.00
2023-02-06T00:35:10.418Z,0.00
2023-02-06T00:36:10.398Z,0.00
2023-02-06T00:37:10.388Z,0.00
2023-02-06T00:38:10.385Z,0.00
2023-02-06T00:39:10.338Z,0.00
2023-02-06T00:40:10.316Z,0.00
2023-02-06T00:41:10.301Z,0.00
2023-02-06T00:42:10.276Z,0.00
2023-02-06T00:43:10.255Z,0.00
2023-02-06T00:44:10.233Z,0.00
2023-02-06T00:45:10.221Z,0.00
2023-02-06T00:46:10.234Z,0.00
2023-02-06T00:47:10.176Z,0.00
2023-02-06T00:48:10.170Z,0.00
2023-02-06T00:49:10.135Z,0.00
2023-02-06T00:50:10.114Z,0.00
2023-02-06T00:51:10.093Z,0.00
2023-02-06T00:52:10.070Z,0.00
2023-02-06T00:53:10.064Z,0.00
2023-02-06T00:54:10.035Z,0.00
2023-02-06T00:55:10.015Z,0.00
2023-02-06T00:56:09.996Z,0.00
2023-02-06T00:57:09.989Z,0.00
2023-02-06T00:58:09.972Z,0.00
2023-02-06T00:59:09.952Z,0.00
2023-02-06T01:00:09.906Z,0.00
2023-02-06T01:01:09.892Z,0.00
2023-02-06T01:02:09.879Z,0.00
2023-02-06T01:03:09.846Z,0.00
2023-02-06T01:04:09.822Z,0.00
2023-02-06T01:05:09.800Z,0.00
2023-02-06T01:06:09.789Z,0.00
2023-02-06T01:07:09.765Z,0.00
2023-02-06T01:08:09.740Z,0.00
2023-02-06T01:09:09.722Z,0.00
2023-02-06T01:10:09.713Z,0.00
2023-02-06T01:11:09.674Z,0.00
2023-02-06T01:12:09.663Z,0.00
2023-02-06T01:13:09.639Z,0.00
2023-02-06T01:14:09.609Z,0.00
2023-02-06T01:15:09.592Z,0.00
2023-02-06T01:16:09.626Z,0.00
2023-02-06T01:17:09.560Z,0.00
2023-02-06T01:18:09.531Z,0.00
2023-02-06T01:19:09.720Z,0.00
2023-02-06T01:20:09.487Z,0.00
2023-02-06T01:21:09.466Z,0.00
2023-02-06T01:22:09.443Z,0.00
2023-02-06T01:23:09.432Z,0.00
2023-02-06T01:24:09.398Z,0.00
2023-02-06T01:25:09.379Z,0.00
2023-02-06T01:26:09.363Z,0.00
2023-02-06T01:27:09.336Z,0.00
2023-02-06T01:28:09.341Z,0.00
2023-02-06T01:29:09.295Z,0.00
2023-02-06T01:30:09.271Z,0.00
2023-02-06T01:31:09.263Z,0.00
2023-02-06T01:32:09.229Z,0.00
2023-02-06T01:33:09.213Z,0.00
2023-02-06T01:34:09.189Z,0.00
2023-02-06T01:35:09.170Z,0.00
2023-02-06T01:36:09.160Z,0.00
2023-02-06T01:37:09.127Z,0.00
2023-02-06T01:38:09.105Z,0.00
2023-02-06T01:39:09.086Z,0.00
2023-02-06T01:40:09.106Z,0.00
2023-02-06T01:41:09.052Z,0.00
2023-02-06T01:42:09.033Z,0.00
2023-02-06T01:43:09.002Z,0.00
2023-02-06T01:44:08.985Z,0.00
2023-02-06T01:45:08.961Z,0.00
2023-02-06T01:46:08.941Z,0.00
2023-02-06T01:47:08.919Z,0.00
2023-02-06T01:48:08.919Z,0.00
2023-02-06T01:49:08.879Z,0.00
2023-02-06T01:50:08.859Z,0.00
2023-02-06T01:51:08.835Z,0.00
2023-02-06T01:52:08.821Z,0.00
2023-02-06T01:53:08.810Z,0.00
2023-02-06T01:54:08.785Z,0.00
2023-02-06T01:55:08.761Z,0.00
2023-02-06T01:56:08.729Z,0.00
2023-02-06T01:57:08.708Z,0.00
2023-02-06T01:58:08.693Z,0.00
2023-02-06T01:59:08.675Z,0.00
2023-02-06T02:00:08.644Z,0.00
2023-02-06T02:01:08.651Z,0.00
2023-02-06T02:02:08.612Z,0.00
2023-02-06T02:03:08.587Z,0.00
2023-02-06T02:04:08.580Z,0.00
2023-02-06T02:05:08.542Z,0.00
2023-02-06T02:06:08.526Z,0.00
2023-02-06T02:07:08.507Z,0.00
2023-02-06T02:08:08.479Z,0.00
2023-02-06T02:09:08.456Z,0.00
2023-02-06T02:10:08.439Z,0.00
2023-02-06T02:11:08.417Z,0.00
2023-02-06T02:12:08.399Z,0.00
2023-02-06T02:13:08.384Z,0.00
2023-02-06T02:14:08.360Z,0.00
2023-02-06T02:15:08.337Z,0.00
2023-02-06T02:16:08.336Z,0.00
2023-02-06T02:17:08.298Z,0.00
2023-02-06T02:18:08.270Z,0.00
2023-02-06T02:19:08.251Z,0.00
2023-02-06T02:20:08.232Z,0.00
2023-02-06T02:21:08.222Z,0.00
2023-02-06T02:22:08.192Z,0.00
2023-02-06T02:23:08.168Z,0.00
2023-02-06T02:24:08.155Z,0.00
2023-02-06T02:25:08.135Z,0.00
2023-02-06T02:26:08.112Z,0.00
2023-02-06T02:27:08.086Z,0.00
2023-02-06T02:28:08.139Z,0.00
2023-02-06T02:29:08.045Z,0.00
2023-02-06T02:30:08.034Z,0.00
2023-02-06T02:31:08.066Z,0.00
2023-02-06T02:32:07.981Z,0.00
2023-02-06T02:33:07.960Z,0.00
2023-02-06T02:34:07.941Z,0.00
2023-02-06T02:35:07.921Z,0.00
2023-02-06T02:36:07.896Z,0.00
2023-02-06T02:37:07.880Z,0.00
2023-02-06T02:38:07.863Z,0.00
2023-02-06T02:39:07.836Z,0.00
2023-02-06T02:40:08.069Z,0.00
2023-02-06T02:41:07.795Z,0.00
2023-02-06T02:42:07.778Z,0.00
2023-02-06T02:43:07.755Z,0.00
2023-02-06T02:44:07.730Z,0.00
2023-02-06T02:45:07.740Z,0.00
2023-02-06T02:46:07.801Z,0.00
2023-02-06T02:47:07.669Z,0.00
2023-02-06T02:48:07.646Z,0.00
2023-02-06T02:49:07.630Z,0.00
2023-02-06T02:50:07.608Z,0.00
2023-02-06T02:51:07.587Z,0.00
2023-02-06T02:52:07.562Z,0.00
2023-02-06T02:53:07.542Z,0.00
2023-02-06T02:54:07.520Z,0.00
2023-02-06T02:55:07.505Z,0.00
2023-02-06T02:56:07.487Z,0.00
2023-02-06T02:57:07.478Z,0.00
2023-02-06T02:58:07.445Z,0.00
2023-02-06T02:59:07.423Z,0.00
2023-02-06T03:00:07.514Z,0.00
2023-02-06T03:01:07.421Z,0.00
2023-02-06T03:02:07.390Z,0.00
2023-02-06T03:03:07.340Z,0.00
2023-02-06T03:04:07.316Z,0.00
2023-02-06T03:05:07.294Z,0.00
2023-02-06T03:06:07.271Z,0.00
2023-02-06T03:07:07.256Z,0.00
2023-02-06T03:08:07.231Z,0.00
2023-02-06T03:09:07.214Z,0.00
2023-02-06T03:10:07.190Z,0.00
2023-02-06T03:11:07.170Z,0.00
2023-02-06T03:12:07.154Z,0.00
2023-02-06T03:13:07.132Z,0.00
2023-02-06T03:14:07.110Z,0.00
2023-02-06T03:15:07.089Z,0.00
2023-02-06T03:16:07.100Z,0.00
2023-02-06T03:17:07.064Z,0.00
2023-02-06T03:18:07.029Z,0.00
2023-02-06T03:19:07.008Z,0.00
2023-02-06T03:20:06.991Z,0.00
2023-02-06T03:21:06.999Z,0.00
2023-02-06T03:22:06.947Z,0.00
2023-02-06T03:23:06.936Z,0.00
2023-02-06T03:24:06.905Z,0.00
2023-02-06T03:25:06.890Z,0.00
2023-02-06T03:26:06.872Z,0.00
2023-02-06T03:27:06.847Z,0.00
2023-02-06T03:28:06.839Z,0.00
2023-02-06T03:29:06.807Z,0.00
2023-02-06T03:30:06.790Z,0.00
2023-02-06T03:31:06.763Z,0.00
2023-02-06T03:32:06.749Z,0.00
2023-02-06T03:33:06.727Z,0.00
2023-02-06T03:34:06.707Z,0.00
2023-02-06T03:35:06.686Z,0.00
2023-02-06T03:36:07.177Z,0.00
2023-02-06T03:37:06.655Z,0.00
2023-02-06T03:38:06.634Z,0.00
2023-02-06T03:39:06.610Z,0.00
2023-02-06T03:40:06.593Z,0.00
2023-02-06T03:41:06.568Z,0.00
2023-02-06T03:42:06.544Z,0.00
2023-02-06T03:43:06.524Z,0.00
2023-02-06T03:44:06.505Z,0.00
2023-02-06T03:45:06.485Z,0.00
2023-02-06T03:46:06.552Z,0.00
2023-02-06T03:47:06.483Z,0.00
2023-02-06T03:48:06.428Z,0.00
2023-02-06T03:49:06.404Z,0.00
2023-02-06T03:50:06.383Z,0.00
2023-02-06T03:51:06.370Z,0.00
2023-02-06T03:52:06.350Z,0.00
2023-02-06T03:53:06.327Z,0.00
2023-02-06T03:54:06.310Z,0.00
2023-02-06T03:55:06.287Z,0.00
2023-02-06T03:56:06.267Z,0.00
2023-02-06T03:57:06.256Z,0.00
2023-02-06T03:58:06.226Z,0.00
2023-02-06T03:59:06.207Z,0.00
2023-02-06T04:00:06.199Z,0.00
2023-02-06T04:01:06.185Z,0.00
2023-02-06T04:02:06.166Z,0.00
2023-02-06T04:03:06.128Z,0.00
2023-02-06T04:04:06.107Z,0.00
2023-02-06T04:05:06.104Z,0.00
2023-02-06T04:06:06.074Z,0.00
2023-02-06T04:07:06.052Z,0.00
2023-02-06T04:08:06.028Z,0.00
2023-02-06T04:09:06.010Z,0.00
2023-02-06T04:10:05.993Z,0.00
2023-02-06T04:11:05.974Z,0.00
2023-02-06T04:12:05.949Z,0.00
2023-02-06T04:13:05.931Z,0.00
2023-02-06T04:14:05.933Z,0.00
2023-02-06T04:15:05.896Z,0.00
2023-02-06T04:16:05.873Z,0.00
2023-02-06T04:17:05.856Z,0.00
2023-02-06T04:18:06.209Z,0.00
2023-02-06T04:19:05.815Z,0.00
2023-02-06T04:20:05.794Z,0.00
2023-02-06T04:21:05.772Z,0.00
2023-02-06T04:22:05.766Z,0.00
2023-02-06T04:23:05.733Z,0.00
2023-02-06T04:24:05.750Z,0.00
2023-02-06T04:25:05.696Z,0.00
2023-02-06T04:26:05.678Z,0.00
2023-02-06T04:27:05.658Z,0.00
2023-02-06T04:28:05.648Z,0.00
2023-02-06T04:29:05.625Z,0.00
2023-02-06T04:30:05.600Z,0.00
2023-02-06T04:31:05.640Z,0.00
2023-02-06T04:32:05.552Z,0.00
2023-02-06T04:33:05.540Z,0.00
2023-02-06T04:34:05.610Z,0.00
2023-02-06T04:35:05.500Z,0.00
2023-02-06T04:36:05.478Z,0.00
2023-02-06T04:37:05.456Z,0.00
2023-02-06T04:38:05.444Z,0.00
2023-02-06T04:39:05.415Z,0.00
2023-02-06T04:40:05.397Z,0.00
2023-02-06T04:41:05.380Z,0.00
2023-02-06T04:42:05.368Z,0.00
2023-02-06T04:43:05.337Z,0.00
2023-02-06T04:44:05.323Z,0.00
2023-02-06T04:45:05.309Z,0.00
2023-02-06T04:46:05.283Z,0.00
2023-02-06T04:47:05.258Z,0.00
2023-02-06T04:48:05.239Z,0.00
2023-02-06T04:49:05.216Z,0.00
2023-02-06T04:50:05.196Z,0.00
2023-02-06T04:51:05.176Z,0.00
2023-02-06T04:52:05.158Z,0.00
2023-02-06T04:53:05.136Z,0.00
2023-02-06T04:54:05.122Z,0.00
2023-02-06T04:55:05.130Z,0.00
2023-02-06T04:56:05.077Z,0.00
2023-02-06T04:57:05.055Z,0.00
2023-02-06T04:58:05.040Z,0.00
2023-02-06T04:59:05.032Z,0.00
2023-02-06T05:00:05.000Z,0.00
2023-02-06T05:01:04.977Z,0.00
2023-02-06T05:02:04.975Z,0.00
2023-02-06T05:03:04.936Z,0.00
2023-02-06T05:04:04.932Z,0.00
2023-02-06T05:05:04.901Z,0.00
2023-02-06T05:06:04.884Z,0.00
2023-02-06T05:07:05.613Z,0.00
2023-02-06T05:08:04.837Z,0.00
2023-02-06T05:09:04.816Z,0.00
2023-02-06T05:10:13.820Z,0.00
2023-02-06T05:12:13.975Z,0.00
2023-02-06T05:13:11.576Z,0.00
2023-02-06T05:15:16.366Z,0.00
2023-02-06T05:16:16.671Z,0.00
2023-02-06T12:10:21.713Z,168.75
2023-02-06T12:11:14.030Z,163.13
2023-02-06T12:13:19.497Z,118.13
2023-02-06T12:14:19.469Z,118.13
2023-02-06T12:16:23.640Z,146.25
2023-02-06T12:17:23.606Z,326.25
2023-02-06T12:19:27.753Z,202.50
2023-02-06T12:20:27.727Z,151.88
2023-02-06T12:22:31.874Z,191.25
2023-02-06T12:23:31.872Z,337.50
2023-02-06T15:59:23.678Z,5.63
2023-02-06T16:00:23.734Z,5.63
2023-02-06T16:01:23.639Z,5.63
2023-02-06T16:02:23.627Z,5.63
2023-02-06T16:03:23.594Z,5.63
2023-02-06T16:04:23.575Z,5.63
2023-02-06T16:05:23.553Z,5.63
2023-02-06T16:06:23.544Z,5.63
2023-02-06T16:07:23.522Z,5.63
2023-02-06T16:08:23.507Z,5.63
2023-02-06T16:09:23.481Z,5.63
2023-02-06T16:10:23.472Z,0.00
2023-02-06T16:11:23.445Z,0.00
2023-02-06T16:12:23.443Z,0.00
2023-02-06T16:13:23.417Z,0.00
2023-02-06T16:14:23.393Z,0.00
2023-02-06T16:15:23.379Z,0.00
2023-02-06T16:16:23.377Z,0.00
2023-02-06T16:17:23.344Z,0.00
2023-02-06T16:18:23.318Z,0.00
2023-02-06T16:19:23.304Z,0.00
2023-02-06T16:20:23.284Z,0.00
2023-02-06T16:21:23.267Z,0.00
2023-02-06T16:22:23.267Z,0.00
2023-02-06T16:23:23.259Z,0.00
2023-02-06T16:24:23.212Z,0.00
2023-02-06T16:25:23.200Z,0.00
2023-02-06T16:26:23.175Z,0.00
2023-02-06T16:27:23.156Z,0.00
2023-02-06T16:28:23.185Z,0.00
2023-02-06T16:29:23.118Z,0.00
2023-02-06T16:30:23.121Z,0.00
2023-02-06T16:31:23.207Z,0.00
2023-02-06T16:32:23.069Z,0.00
2023-02-06T16:33:23.048Z,0.00
2023-02-06T16:34:23.025Z,0.00
2023-02-06T16:35:23.008Z,0.00
2023-02-06T16:36:22.990Z,0.00
2023-02-06T16:37:22.971Z,0.00
2023-02-06T16:38:22.952Z,0.00
2023-02-06T16:39:23.660Z,0.00
2023-02-06T16:40:22.915Z,0.00
2023-02-06T16:41:22.900Z,0.00
2023-02-06T16:42:22.879Z,0.00
2023-02-06T16:43:22.862Z,0.00
2023-02-06T16:44:23.952Z,0.00
2023-02-06T16:45:22.842Z,0.00
2023-02-06T16:46:22.837Z,0.00
2023-02-06T16:47:22.798Z,0.00
2023-02-06T16:48:22.766Z,0.00
2023-02-06T16:49:22.747Z,0.00
2023-02-06T16:50:22.736Z,0.00
2023-02-06T16:51:22.715Z,0.00
2023-02-06T16:52:22.738Z,0.00
2023-02-06T16:53:22.672Z,0.00
2023-02-06T16:54:22.656Z,0.00
2023-02-06T16:55:23.473Z,0.00
2023-02-06T16:56:22.632Z,0.00
2023-02-06T16:57:22.602Z,0.00
2023-02-06T16:58:22.587Z,0.00
2023-02-06T16:59:22.561Z,0.00
2023-02-06T17:00:22.545Z,0.00
2023-02-06T17:01:22.565Z,0.00
2023-02-06T17:02:22.507Z,0.00
2023-02-06T17:03:22.491Z,0.00
2023-02-06T17:04:22.475Z,0.00
2023-02-06T17:05:22.452Z,0.00
2023-02-06T17:06:22.431Z,0.00
2023-02-06T17:07:22.412Z,0.00
2023-02-06T17:08:22.398Z,0.00
2023-02-06T17:09:22.373Z,0.00
2023-02-06T17:10:22.358Z,0.00
2023-02-06T17:11:22.338Z,0.00
2023-02-06T17:12:22.334Z,0.00
2023-02-06T17:13:22.295Z,0.00
2023-02-06T17:14:22.285Z,0.00
2023-02-06T17:15:22.268Z,0.00
2023-02-06T17:16:22.245Z,0.00
2023-02-06T17:17:22.230Z,0.00
2023-02-06T17:18:22.206Z,0.00
2023-02-06T17:19:22.194Z,0.00
2023-02-06T17:20:22.167Z,0.00
2023-02-06T17:21:22.156Z,0.00
2023-02-06T17:22:22.128Z,0.00
2023-02-06T17:23:22.109Z,0.00
2023-02-06T17:24:22.089Z,0.00
2023-02-06T17:25:22.068Z,0.00
2023-02-06T17:26:22.054Z,0.00
2023-02-06T17:27:22.044Z,0.00
2023-02-06T17:28:22.068Z,0.00
2023-02-06T17:29:21.990Z,0.00
2023-02-06T17:30:22.036Z,0.00
2023-02-06T17:31:22.125Z,0.00
2023-02-06T17:32:21.945Z,0.00
2023-02-06T17:33:21.914Z,0.00
2023-02-06T17:34:21.896Z,0.00
2023-02-06T17:35:21.920Z,0.00
2023-02-06T17:36:21.869Z,0.00
2023-02-06T17:37:21.837Z,0.00
2023-02-06T17:38:21.824Z,0.00
2023-02-06T17:39:21.800Z,0.00
2023-02-06T17:40:21.822Z,0.00
2023-02-06T17:41:21.762Z,0.00
2023-02-06T17:42:21.836Z,0.00
2023-02-06T17:43:21.725Z,0.00
2023-02-06T17:44:21.714Z,0.00
2023-02-06T17:45:21.690Z,0.00
2023-02-06T17:46:21.700Z,0.00
2023-02-06T17:47:21.657Z,0.00
2023-02-06T17:48:22.149Z,0.00
2023-02-06T17:49:22.012Z,0.00
2023-02-06T17:50:21.602Z,0.00
2023-02-06T17:51:21.578Z,0.00
2023-02-06T17:52:21.558Z,0.00
2023-02-06T17:53:21.537Z,0.00
2023-02-06T17:54:21.515Z,0.00
2023-02-06T17:55:21.494Z,0.00
2023-02-06T17:56:21.487Z,0.00
2023-02-06T17:57:21.452Z,0.00
2023-02-06T17:58:21.436Z,0.00
2023-02-06T17:59:21.424Z,0.00
2023-02-06T18:00:21.395Z,0.00
2023-02-06T18:01:21.404Z,0.00
2023-02-06T18:02:21.459Z,0.00
2023-02-06T18:03:21.370Z,0.00
2023-02-06T18:04:21.338Z,0.00
2023-02-06T18:05:21.313Z,0.00
2023-02-06T18:06:21.292Z,0.00
2023-02-06T18:07:21.263Z,0.00
2023-02-06T18:08:21.367Z,0.00
2023-02-06T18:09:21.234Z,0.00
2023-02-06T18:10:21.199Z,0.00
2023-02-06T18:11:21.245Z,0.00
2023-02-06T18:12:21.163Z,0.00
2023-02-06T18:13:21.164Z,0.00
2023-02-06T18:14:21.129Z,0.00
2023-02-06T18:15:21.107Z,0.00
2023-02-06T18:16:21.124Z,0.00
2023-02-06T18:17:21.063Z,0.00
2023-02-06T18:18:21.041Z,0.00
2023-02-06T18:19:21.022Z,0.00
2023-02-06T18:20:21.004Z,0.00
2023-02-06T18:21:20.989Z,0.00
2023-02-06T18:22:20.964Z,0.00
2023-02-06T18:23:20.953Z,0.00
2023-02-06T18:24:20.934Z,0.00
2023-02-06T18:25:20.913Z,0.00
2023-02-06T18:26:21.935Z,0.00
2023-02-06T18:27:20.864Z,0.00
2023-02-06T18:28:20.886Z,0.00
2023-02-06T18:29:20.833Z,0.00
2023-02-06T18:30:20.807Z,0.00
2023-02-06T18:31:20.794Z,0.00
2023-02-06T18:32:20.767Z,0.00
2023-02-06T18:33:20.743Z,0.00
2023-02-06T18:34:20.731Z,0.00
2023-02-06T18:35:20.712Z,0.00
2023-02-06T18:36:20.692Z,0.00
2023-02-06T18:37:20.663Z,0.00
2023-02-06T18:38:20.652Z,0.00
2023-02-06T18:39:20.628Z,0.00
2023-02-06T18:40:20.605Z,0.00
2023-02-06T18:41:20.584Z,0.00
2023-02-06T18:42:20.617Z,0.00
2023-02-06T18:43:20.545Z,0.00
2023-02-06T18:44:20.532Z,0.00
2023-02-06T18:45:20.506Z,0.00
2023-02-06T18:46:20.497Z,0.00
2023-02-06T18:47:20.469Z,0.00
2023-02-06T18:48:20.491Z,0.00
2023-02-06T18:49:20.424Z,0.00
2023-02-06T18:50:20.413Z,0.00
2023-02-06T18:51:20.389Z,0.00
2023-02-06T18:52:20.367Z,0.00
2023-02-06T18:53:20.342Z,0.00
2023-02-06T18:54:20.448Z,0.00
2023-02-06T18:55:20.328Z,0.00
2023-02-06T18:56:20.312Z,0.00
2023-02-06T18:57:20.271Z,0.00
2023-02-06T18:58:20.249Z,0.00
2023-02-06T18:59:20.231Z,0.00
2023-02-06T19:00:20.227Z,0.00
2023-02-06T19:01:20.192Z,0.00
2023-02-06T19:02:20.232Z,0.00
2023-02-06T19:03:20.154Z,0.00
2023-02-06T19:04:20.142Z,0.00
2023-02-06T19:05:20.122Z,0.00
2023-02-06T19:06:20.095Z,0.00
2023-02-06T19:07:20.086Z,0.00
2023-02-06T19:08:20.067Z,0.00
2023-02-06T19:09:20.051Z,0.00
2023-02-06T19:10:20.079Z,0.00
2023-02-06T19:11:19.999Z,0.00
2023-02-06T19:12:19.972Z,0.00
2023-02-06T19:13:19.956Z,0.00
2023-02-06T19:14:19.938Z,0.00
2023-02-06T19:15:19.919Z,0.00
2023-02-06T19:16:19.934Z,0.00
2023-02-06T19:17:19.872Z,0.00
2023-02-06T19:18:35.980Z,0.00
2023-02-06T19:19:19.854Z,0.00
2023-02-06T19:20:19.819Z,0.00
2023-02-06T19:21:19.792Z,0.00
2023-02-06T19:22:19.787Z,0.00
2023-02-06T19:23:19.755Z,0.00
2023-02-06T19:24:19.734Z,0.00
2023-02-06T19:25:19.712Z,0.00
2023-02-06T19:26:19.694Z,0.00
2023-02-06T19:27:19.674Z,0.00
2023-02-06T19:28:19.693Z,0.00
2023-02-06T19:29:34.455Z,0.00
2023-02-06T19:30:19.630Z,0.00
2023-02-06T19:31:19.658Z,0.00
2023-02-06T19:32:19.575Z,0.00
2023-02-06T19:33:19.553Z,0.00
2023-02-06T19:34:19.532Z,0.00
2023-02-06T19:35:19.511Z,0.00
2023-02-06T19:36:19.505Z,0.00
2023-02-06T19:37:19.472Z,0.00
2023-02-06T19:38:19.455Z,0.00
2023-02-06T19:39:19.431Z,0.00
2023-02-06T19:40:19.471Z,0.00
2023-02-06T19:41:19.523Z,0.00
2023-02-06T19:42:19.373Z,0.00
2023-02-06T19:43:19.364Z,0.00
2023-02-06T19:44:21.143Z,0.00
2023-02-06T19:45:19.589Z,0.00
2023-02-06T19:46:24.151Z,0.00
2023-02-06T19:47:19.450Z,0.00
2023-02-06T19:48:26.147Z,0.00
2023-02-06T19:49:20.149Z,0.00
2023-02-06T19:50:19.518Z,0.00
2023-02-06T19:51:20.144Z,0.00
2023-02-06T19:52:19.658Z,0.00
2023-02-06T19:53:19.219Z,0.00
2023-02-06T19:54:19.401Z,0.00
2023-02-06T19:55:19.114Z,0.00
2023-02-06T19:56:19.094Z,0.00
2023-02-06T19:57:19.070Z,0.00
2023-02-06T19:58:19.050Z,0.00
2023-02-06T19:59:19.046Z,0.00
2023-02-06T20:00:19.006Z,0.00
2023-02-06T20:01:19.039Z,0.00
2023-02-06T20:02:18.990Z,0.00
2023-02-06T20:03:18.980Z,0.00
2023-02-06T20:04:18.927Z,0.00
2023-02-06T20:05:18.906Z,0.00
2023-02-06T20:06:18.887Z,0.00
2023-02-06T20:07:18.877Z,0.00
2023-02-06T20:08:18.843Z,0.00
2023-02-06T20:09:18.837Z,0.00
2023-02-06T20:10:18.820Z,0.00
2023-02-06T20:11:18.790Z,0.00
2023-02-06T20:12:18.776Z,0.00
2023-02-06T20:13:18.752Z,0.00
2023-02-06T20:14:18.740Z,0.00
2023-02-06T20:15:18.710Z,0.00
2023-02-06T20:16:18.732Z,0.00
2023-02-06T20:17:18.677Z,0.00
2023-02-06T20:18:18.651Z,0.00
2023-02-06T20:19:18.638Z,0.00
2023-02-06T20:20:18.607Z,0.00
2023-02-06T20:21:18.689Z,0.00
2023-02-06T20:22:21.154Z,0.00
2023-02-06T20:23:18.643Z,0.00
2023-02-06T20:24:18.627Z,0.00
2023-02-06T20:25:18.510Z,0.00
2023-02-06T20:26:18.493Z,0.00
2023-02-06T20:27:18.849Z,0.00
2023-02-06T20:28:18.531Z,0.00
2023-02-06T20:29:19.562Z,0.00
2023-02-06T20:30:18.995Z,0.00
2023-02-06T20:31:19.375Z,0.00
2023-02-06T20:32:18.470Z,0.00
2023-02-06T20:33:18.527Z,0.00
2023-02-06T20:34:18.340Z,0.00
2023-02-06T20:35:18.318Z,0.00
2023-02-06T20:36:18.292Z,0.00
2023-02-06T20:37:18.279Z,0.00
2023-02-06T20:38:18.246Z,0.00
2023-02-06T20:39:18.226Z,0.00
2023-02-06T20:40:18.207Z,0.00
2023-02-06T20:41:18.185Z,0.00
2023-02-06T20:42:18.191Z,0.00
2023-02-06T20:43:18.150Z,0.00
2023-02-06T20:44:18.122Z,0.00
2023-02-06T20:45:18.115Z,0.00
2023-02-06T20:46:18.160Z,0.00
2023-02-06T20:47:18.066Z,0.00
2023-02-06T20:48:18.042Z,0.00
2023-02-06T20:49:18.035Z,0.00
2023-02-06T20:50:18.009Z,0.00
2023-02-06T20:51:20.272Z,0.00
2023-02-06T20:52:17.955Z,0.00
2023-02-06T20:53:17.940Z,0.00
2023-02-06T20:54:17.923Z,0.00
2023-02-06T20:55:17.901Z,0.00
2023-02-06T20:56:17.881Z,0.00
2023-02-06T20:57:17.887Z,0.00
2023-02-06T20:58:17.836Z,0.00
2023-02-06T20:59:17.819Z,0.00
2023-02-06T21:00:17.839Z,0.00
2023-02-06T21:01:17.836Z,0.00
2023-02-06T21:02:17.812Z,0.00
2023-02-06T21:03:17.736Z,0.00
2023-02-06T21:04:17.711Z,0.00
2023-02-06T21:05:17.715Z,0.00
2023-02-06T21:06:17.677Z,0.00
2023-02-06T21:07:17.655Z,0.00
2023-02-06T21:08:17.634Z,0.00
2023-02-06T21:09:17.614Z,0.00
2023-02-06T21:10:17.593Z,0.00
2023-02-06T21:11:17.582Z,0.00
2023-02-06T21:12:17.555Z,0.00
2023-02-06T21:13:17.537Z,0.00
2023-02-06T21:14:17.511Z,0.00
2023-02-06T21:15:17.781Z,0.00
2023-02-06T21:16:17.471Z,0.00
2023-02-06T21:17:18.165Z,0.00
2023-02-06T21:18:18.162Z,0.00
2023-02-06T21:19:17.431Z,0.00
2023-02-06T21:20:17.408Z,0.00
2023-02-06T21:21:18.159Z,0.00
2023-02-06T21:22:17.348Z,0.00
2023-02-06T21:23:17.334Z,0.00
2023-02-06T21:24:17.312Z,0.00
2023-02-06T21:25:17.291Z,0.00
2023-02-06T21:26:17.288Z,0.00
2023-02-06T21:27:17.256Z,0.00
2023-02-06T21:28:17.377Z,0.00
2023-02-06T21:29:17.223Z,0.00
2023-02-06T21:30:17.213Z,0.00
2023-02-06T21:31:17.263Z,0.00
2023-02-06T21:32:17.263Z,0.00
2023-02-06T21:33:17.133Z,0.00
2023-02-06T21:34:17.114Z,0.00
2023-02-06T21:35:17.098Z,0.00
2023-02-06T21:36:17.072Z,0.00
2023-02-06T21:37:17.063Z,0.00
2023-02-06T21:38:17.035Z,0.00
2023-02-06T21:39:17.015Z,0.00
2023-02-06T21:40:16.999Z,0.00
2023-02-06T21:41:16.989Z,0.00
2023-02-06T21:42:17.556Z,0.00
2023-02-06T21:43:16.930Z,0.00
2023-02-06T21:44:16.929Z,0.00
2023-02-06T21:45:16.898Z,0.00
2023-02-06T21:46:16.911Z,0.00
2023-02-06T21:47:16.854Z,0.00
2023-02-06T21:48:16.849Z,0.00
2023-02-06T21:49:16.840Z,0.00
2023-02-06T21:50:16.811Z,0.00
2023-02-06T21:51:16.995Z,0.00
2023-02-06T21:52:17.106Z,0.00
2023-02-06T21:53:16.960Z,0.00
2023-02-06T21:54:17.296Z,0.00
2023-02-06T21:55:16.917Z,0.00
2023-02-06T21:56:16.679Z,0.00
2023-02-06T21:57:16.658Z,0.00
2023-02-06T21:58:16.642Z,0.00
2023-02-06T21:59:16.619Z,0.00
2023-02-06T22:00:16.596Z,0.00
2023-02-06T22:01:16.590Z,0.00
2023-02-06T22:02:16.549Z,0.00
2023-02-06T22:03:16.564Z,0.00
2023-02-06T22:04:16.516Z,0.00
2023-02-06T22:05:16.493Z,0.00
2023-02-06T22:06:16.484Z,0.00
2023-02-06T22:07:16.464Z,0.00
2023-02-06T22:08:16.432Z,0.00
2023-02-06T22:09:16.419Z,0.00
2023-02-06T22:10:16.392Z,0.00
2023-02-06T22:11:16.371Z,0.00
2023-02-06T22:12:16.352Z,0.00
2023-02-06T22:13:16.339Z,0.00
2023-02-06T22:14:16.320Z,0.00
2023-02-06T22:15:16.304Z,0.00
2023-02-06T22:16:16.314Z,0.00
2023-02-06T22:17:16.252Z,0.00
2023-02-06T22:18:16.237Z,0.00
2023-02-06T22:19:16.230Z,0.00
2023-02-06T22:20:16.496Z,0.00
2023-02-06T22:21:16.181Z,0.00
2023-02-06T22:22:16.155Z,0.00
2023-02-06T22:23:16.148Z,0.00
2023-02-06T22:24:16.116Z,0.00
2023-02-06T22:25:16.172Z,0.00
2023-02-06T22:26:16.074Z,0.00
2023-02-06T22:27:16.054Z,0.00
2023-02-06T22:28:16.045Z,0.00
2023-02-06T22:29:16.019Z,0.00
2023-02-06T22:30:15.993Z,0.00
2023-02-06T22:31:16.053Z,0.00
2023-02-06T22:32:15.960Z,0.00
2023-02-06T22:33:15.935Z,0.00
2023-02-06T22:34:15.917Z,0.00
2023-02-06T22:35:15.895Z,0.00
2023-02-06T22:36:15.878Z,0.00
2023-02-06T22:37:15.853Z,0.00
2023-02-06T22:38:15.833Z,0.00
2023-02-06T22:39:15.823Z,0.00
2023-02-06T22:40:15.793Z,0.00
2023-02-06T22:41:15.791Z,0.00
2023-02-06T22:42:15.757Z,0.00
2023-02-06T22:43:15.744Z,0.00
2023-02-06T22:44:15.720Z,0.00
2023-02-06T22:45:15.712Z,0.00
2023-02-06T22:46:15.713Z,0.00
2023-02-06T22:47:15.661Z,0.00
2023-02-06T22:48:15.636Z,0.00
2023-02-06T22:49:15.626Z,0.00
2023-02-06T22:50:15.601Z,0.00
2023-02-06T22:51:15.577Z,0.00
2023-02-06T22:52:15.556Z,0.00
2023-02-06T22:53:15.550Z,0.00
2023-02-06T22:54:15.519Z,0.00
2023-02-06T22:55:15.505Z,0.00
2023-02-06T22:56:15.481Z,0.00
2023-02-06T22:57:15.455Z,0.00
2023-02-06T22:58:15.434Z,0.00
2023-02-06T22:59:15.423Z,0.00
2023-02-06T23:00:15.402Z,0.00
2023-02-06T23:01:15.384Z,0.00
2023-02-06T23:02:15.400Z,0.00
2023-02-06T23:03:15.348Z,0.00
2023-02-06T23:04:15.323Z,0.00
2023-02-06T23:05:15.304Z,0.00
2023-02-06T23:06:15.284Z,0.00
2023-02-06T23:07:15.265Z,0.00
2023-02-06T23:08:15.245Z,0.00
2023-02-06T23:09:15.238Z,0.00
2023-02-06T23:10:15.206Z,0.00
2023-02-06T23:11:15.194Z,0.00
2023-02-06T23:12:15.175Z,0.00
2023-02-06T23:13:15.149Z,0.00
2023-02-06T23:14:15.127Z,0.00
2023-02-06T23:15:15.118Z,0.00
2023-02-06T23:16:15.103Z,0.00
2023-02-06T23:17:15.068Z,0.00
2023-02-06T23:18:15.049Z,0.00
2023-02-06T23:19:15.029Z,0.00
2023-02-06T23:20:15.007Z,0.00
2023-02-06T23:21:14.990Z,0.00
2023-02-06T23:22:14.968Z,0.00
2023-02-06T23:23:14.951Z,0.00
2023-02-06T23:24:14.944Z,0.00
2023-02-06T23:25:14.918Z,0.00
2023-02-06T23:26:14.901Z,0.00
2023-02-06T23:27:14.886Z,0.00
2023-02-06T23:28:14.889Z,0.00
2023-02-06T23:29:14.833Z,0.00
2023-02-06T23:30:14.810Z,0.00
2023-02-06T23:31:14.834Z,0.00
2023-02-06T23:32:14.782Z,0.00
2023-02-06T23:33:14.763Z,0.00
2023-02-06T23:34:14.736Z,0.00
2023-02-06T23:35:14.720Z,0.00
2023-02-06T23:36:14.699Z,0.00
2023-02-06T23:37:14.674Z,0.00
2023-02-06T23:38:14.651Z,0.00
2023-02-06T23:39:14.632Z,0.00
2023-02-06T23:40:14.611Z,0.00
2023-02-06T23:41:14.592Z,0.00
2023-02-06T23:42:14.580Z,0.00
2023-02-06T23:43:14.561Z,0.00
2023-02-06T23:44:14.561Z,0.00
2023-02-06T23:45:14.514Z,0.00
2023-02-06T23:46:15.203Z,0.00
2023-02-06T23:47:14.480Z,0.00
2023-02-06T23:48:14.453Z,0.00
2023-02-06T23:49:14.435Z,0.00
2023-02-06T23:50:14.416Z,0.00
2023-02-06T23:51:14.396Z,0.00